sensor_id;sensor_type;location;lat;lon;timestamp;temperature;humidity
1405;DHT22;697;51.114;6.542;2024-03-23T00:54:09;11.50;99.90
1405;DHT22;697;51.114;6.542;2024-03-23T00:56:35;11.50;99.90
1405;DHT22;697;51.114;6.542;2024-03-23T00:59:02;11.50;99.90
1405;DHT22;697;51.114;6.542;2024-03-23T01:01:28;11.30;99.90
1405;DHT22;697;51.114;6.542;2024-03-23T01:03:55;11.20;99.90
1405;DHT22;697;51.114;6.542;2024-03-23T01:06:20;11.10;99.90
1405;DHT22;697;51.114;6.542;2024-03-23T01:08:47;11.00;99.90
1405;DHT22;697;51.114;6.542;2024-03-23T01:11:15;10.80;99.90
1405;DHT22;697;51.114;6.542;2024-03-23T01:13:41;10.80;99.90
1405;DHT22;697;51.114;6.542;2024-03-23T01:16:07;10.70;99.90
1405;DHT22;697;51.114;6.542;2024-03-23T01:18:34;10.60;99.90
1405;DHT22;697;51.114;6.542;2024-03-23T01:21:00;10.60;99.90
1405;DHT22;697;51.114;6.542;2024-03-23T01:23:27;10.60;99.90
1405;DHT22;697;51.114;6.542;2024-03-23T01:25:52;10.60;99.90
1405;DHT22;697;51.114;6.542;2024-03-23T01:28:21;10.60;99.90
1405;DHT22;697;51.114;6.542;2024-03-23T01:30:47;10.50;99.90
1405;DHT22;697;51.114;6.542;2024-03-23T01:33:15;10.50;99.90
1405;DHT22;697;51.114;6.542;2024-03-23T01:35:41;10.40;99.90
1405;DHT22;697;51.114;6.542;2024-03-23T01:38:07;10.40;99.90
1405;DHT22;697;51.114;6.542;2024-03-23T01:40:33;10.30;99.90
1405;DHT22;697;51.114;6.542;2024-03-23T01:43:04;10.30;99.90
1405;DHT22;697;51.114;6.542;2024-03-23T01:45:31;10.30;99.90
1405;DHT22;697;51.114;6.542;2024-03-23T01:47:59;10.40;99.90
1405;DHT22;697;51.114;6.542;2024-03-23T01:50:25;10.40;99.90
1405;DHT22;697;51.114;6.542;2024-03-23T01:52:52;10.40;99.90
1405;DHT22;697;51.114;6.542;2024-03-23T01:55:18;10.40;99.90
1405;DHT22;697;51.114;6.542;2024-03-23T01:57:45;10.40;99.90
1405;DHT22;697;51.114;6.542;2024-03-23T02:00:12;10.40;99.90
1405;DHT22;697;51.114;6.542;2024-03-23T02:02:43;10.40;99.90
1405;DHT22;697;51.114;6.542;2024-03-23T02:05:10;10.40;99.90
1405;DHT22;697;51.114;6.542;2024-03-23T02:07:37;10.40;99.90
1405;DHT22;697;51.114;6.542;2024-03-23T02:10:04;10.40;99.90
1405;DHT22;697;51.114;6.542;2024-03-23T02:12:31;10.40;99.90
1405;DHT22;697;51.114;6.542;2024-03-23T02:14:57;10.50;99.90
1405;DHT22;697;51.114;6.542;2024-03-23T02:17:24;10.50;99.90
1405;DHT22;697;51.114;6.542;2024-03-23T02:19:52;10.50;99.90
1405;DHT22;697;51.114;6.542;2024-03-23T02:22:18;10.50;99.90
1405;DHT22;697;51.114;6.542;2024-03-23T02:24:46;10.50;99.90
1405;DHT22;697;51.114;6.542;2024-03-23T02:27:13;10.50;99.90
1405;DHT22;697;51.114;6.542;2024-03-23T02:29:39;10.50;99.90
1405;DHT22;697;51.114;6.542;2024-03-23T02:32:06;10.40;99.90
1405;DHT22;697;51.114;6.542;2024-03-23T02:34:34;10.40;99.90
1405;DHT22;697;51.114;6.542;2024-03-23T02:37:01;10.40;99.90
1405;DHT22;697;51.114;6.542;2024-03-23T02:39:27;10.40;99.90
1405;DHT22;697;51.114;6.542;2024-03-23T02:41:55;10.30;99.90
1405;DHT22;697;51.114;6.542;2024-03-23T02:44:21;10.30;99.90
1405;DHT22;697;51.114;6.542;2024-03-23T02:46:48;10.30;99.90
1405;DHT22;697;51.114;6.542;2024-03-23T02:49:14;10.30;99.90
1405;DHT22;697;51.114;6.542;2024-03-23T02:51:41;10.20;99.90
1405;DHT22;697;51.114;6.542;2024-03-23T02:54:07;10.20;99.90
1405;DHT22;697;51.114;6.542;2024-03-23T02:56:34;10.20;99.90
1405;DHT22;697;51.114;6.542;2024-03-23T02:59:01;10.10;99.90
1405;DHT22;697;51.114;6.542;2024-03-23T03:01:28;10.10;99.90
1405;DHT22;697;51.114;6.542;2024-03-23T03:03:54;10.00;99.90
1405;DHT22;697;51.114;6.542;2024-03-23T03:06:24;10.00;99.90
1405;DHT22;697;51.114;6.542;2024-03-23T03:08:50;10.00;99.90
1405;DHT22;697;51.114;6.542;2024-03-23T03:11:17;10.00;99.90
1405;DHT22;697;51.114;6.542;2024-03-23T03:13:42;10.00;99.90
1405;DHT22;697;51.114;6.542;2024-03-23T03:16:11;10.00;99.90
1405;DHT22;697;51.114;6.542;2024-03-23T03:18:37;10.00;99.90
1405;DHT22;697;51.114;6.542;2024-03-23T03:21:04;9.90;99.90
1405;DHT22;697;51.114;6.542;2024-03-23T03:23:31;9.90;99.90
1405;DHT22;697;51.114;6.542;2024-03-23T03:25:58;9.90;99.90
1405;DHT22;697;51.114;6.542;2024-03-23T03:28:24;9.90;99.90
1405;DHT22;697;51.114;6.542;2024-03-23T03:30:51;9.80;99.90
1405;DHT22;697;51.114;6.542;2024-03-23T03:33:19;9.80;99.90
1405;DHT22;697;51.114;6.542;2024-03-23T03:35:45;9.80;99.90
1405;DHT22;697;51.114;6.542;2024-03-23T03:38:11;9.70;99.90
1405;DHT22;697;51.114;6.542;2024-03-23T03:40:38;9.70;99.90
1405;DHT22;697;51.114;6.542;2024-03-23T03:43:04;9.70;99.90
1405;DHT22;697;51.114;6.542;2024-03-23T03:45:31;9.70;99.90
1405;DHT22;697;51.114;6.542;2024-03-23T03:47:56;9.60;99.90
1405;DHT22;697;51.114;6.542;2024-03-23T03:50:26;9.60;99.90
1405;DHT22;697;51.114;6.542;2024-03-23T03:52:51;9.50;99.90
1405;DHT22;697;51.114;6.542;2024-03-23T03:55:18;9.50;99.90
1405;DHT22;697;51.114;6.542;2024-03-23T03:57:44;9.40;99.90
1405;DHT22;697;51.114;6.542;2024-03-23T04:00:12;9.40;99.90
1405;DHT22;697;51.114;6.542;2024-03-23T04:02:38;9.30;99.90
1405;DHT22;697;51.114;6.542;2024-03-23T04:05:05;9.20;99.90
1405;DHT22;697;51.114;6.542;2024-03-23T04:07:32;9.10;99.90
1405;DHT22;697;51.114;6.542;2024-03-23T04:09:59;9.10;99.90
1405;DHT22;697;51.114;6.542;2024-03-23T04:12:25;9.00;99.90
1405;DHT22;697;51.114;6.542;2024-03-23T04:14:52;9.00;99.90
1405;DHT22;697;51.114;6.542;2024-03-23T04:17:18;9.00;99.90
1405;DHT22;697;51.114;6.542;2024-03-23T04:19:45;9.00;99.90
1405;DHT22;697;51.114;6.542;2024-03-23T04:22:11;9.00;99.90
1405;DHT22;697;51.114;6.542;2024-03-23T04:24:39;8.90;99.90
1405;DHT22;697;51.114;6.542;2024-03-23T04:27:05;9.00;99.90
1405;DHT22;697;51.114;6.542;2024-03-23T04:29:32;9.00;99.90
1405;DHT22;697;51.114;6.542;2024-03-23T04:31:58;9.00;99.90
1405;DHT22;697;51.114;6.542;2024-03-23T04:34:25;8.90;99.90
1405;DHT22;697;51.114;6.542;2024-03-23T04:36:50;8.80;99.90
1405;DHT22;697;51.114;6.542;2024-03-23T04:39:17;8.80;99.90
1405;DHT22;697;51.114;6.542;2024-03-23T04:41:46;8.80;99.90
1405;DHT22;697;51.114;6.542;2024-03-23T04:44:13;8.70;99.90
1405;DHT22;697;51.114;6.542;2024-03-23T04:46:40;8.60;99.90
1405;DHT22;697;51.114;6.542;2024-03-23T04:49:07;8.60;99.90
1405;DHT22;697;51.114;6.542;2024-03-23T04:51:35;8.50;99.90
1405;DHT22;697;51.114;6.542;2024-03-23T04:54:02;8.40;99.90
1405;DHT22;697;51.114;6.542;2024-03-23T04:56:29;8.40;99.90
1405;DHT22;697;51.114;6.542;2024-03-23T04:58:58;8.30;99.90
1405;DHT22;697;51.114;6.542;2024-03-23T05:01:27;8.30;99.90
1405;DHT22;697;51.114;6.542;2024-03-23T05:03:55;8.30;99.90
1405;DHT22;697;51.114;6.542;2024-03-23T05:06:20;8.30;99.90
1405;DHT22;697;51.114;6.542;2024-03-23T05:08:47;8.30;99.90
1405;DHT22;697;51.114;6.542;2024-03-23T05:11:13;8.20;99.90
1405;DHT22;697;51.114;6.542;2024-03-23T05:13:41;8.10;99.90
1405;DHT22;697;51.114;6.542;2024-03-23T05:16:08;8.10;99.90
1405;DHT22;697;51.114;6.542;2024-03-23T05:18:35;8.00;99.90
1405;DHT22;697;51.114;6.542;2024-03-23T05:21:01;8.00;99.90
1405;DHT22;697;51.114;6.542;2024-03-23T05:23:29;8.00;99.90
1405;DHT22;697;51.114;6.542;2024-03-23T05:25:55;8.10;99.90
1405;DHT22;697;51.114;6.542;2024-03-23T05:28:22;8.10;99.90
1405;DHT22;697;51.114;6.542;2024-03-23T05:30:50;8.10;99.90
1405;DHT22;697;51.114;6.542;2024-03-23T05:33:19;8.10;99.90
1405;DHT22;697;51.114;6.542;2024-03-23T05:35:45;8.10;99.90
1405;DHT22;697;51.114;6.542;2024-03-23T05:38:13;8.10;99.90
1405;DHT22;697;51.114;6.542;2024-03-23T05:40:39;8.10;99.90
1405;DHT22;697;51.114;6.542;2024-03-23T05:43:06;8.10;99.90
1405;DHT22;697;51.114;6.542;2024-03-23T05:45:32;8.10;99.90
1405;DHT22;697;51.114;6.542;2024-03-23T05:47:59;8.10;99.90
1405;DHT22;697;51.114;6.542;2024-03-23T05:50:26;8.00;99.90
1405;DHT22;697;51.114;6.542;2024-03-23T05:52:53;8.00;99.90
1405;DHT22;697;51.114;6.542;2024-03-23T05:55:19;8.00;99.90
1405;DHT22;697;51.114;6.542;2024-03-23T05:57:46;8.00;99.90
1405;DHT22;697;51.114;6.542;2024-03-23T06:00:12;7.90;99.90
1405;DHT22;697;51.114;6.542;2024-03-23T06:02:42;7.90;99.90
1405;DHT22;697;51.114;6.542;2024-03-23T06:05:10;7.80;99.90
1405;DHT22;697;51.114;6.542;2024-03-23T06:07:39;7.80;99.90
1405;DHT22;697;51.114;6.542;2024-03-23T06:10:05;7.80;99.90
1405;DHT22;697;51.114;6.542;2024-03-23T06:12:32;7.70;99.90
1405;DHT22;697;51.114;6.542;2024-03-23T06:14:58;7.70;99.90
1405;DHT22;697;51.114;6.542;2024-03-23T06:17:25;7.70;99.90
1405;DHT22;697;51.114;6.542;2024-03-23T06:19:51;7.70;99.90
1405;DHT22;697;51.114;6.542;2024-03-23T06:22:17;7.60;99.90
1405;DHT22;697;51.114;6.542;2024-03-23T06:24:45;7.60;99.90
1405;DHT22;697;51.114;6.542;2024-03-23T06:27:12;7.70;99.90
1405;DHT22;697;51.114;6.542;2024-03-23T06:29:38;7.70;99.90
1405;DHT22;697;51.114;6.542;2024-03-23T06:32:05;7.70;99.90
1405;DHT22;697;51.114;6.542;2024-03-23T06:34:31;7.80;99.90
1405;DHT22;697;51.114;6.542;2024-03-23T06:36:58;7.80;99.90
1405;DHT22;697;51.114;6.542;2024-03-23T06:39:24;7.90;99.90
1405;DHT22;697;51.114;6.542;2024-03-23T06:41:53;7.90;99.90
1405;DHT22;697;51.114;6.542;2024-03-23T06:44:20;7.90;99.90
1405;DHT22;697;51.114;6.542;2024-03-23T06:46:47;7.90;99.90
1405;DHT22;697;51.114;6.542;2024-03-23T06:49:14;7.90;99.90
1405;DHT22;697;51.114;6.542;2024-03-23T06:51:41;7.90;99.90
1405;DHT22;697;51.114;6.542;2024-03-23T06:54:07;7.90;99.90
1405;DHT22;697;51.114;6.542;2024-03-23T06:56:34;7.90;99.90
1405;DHT22;697;51.114;6.542;2024-03-23T06:59:01;7.90;99.90
1405;DHT22;697;51.114;6.542;2024-03-23T07:01:28;8.00;99.90
1405;DHT22;697;51.114;6.542;2024-03-23T07:03:54;8.00;99.90
1405;DHT22;697;51.114;6.542;2024-03-23T07:06:21;8.10;99.90
1405;DHT22;697;51.114;6.542;2024-03-23T07:08:47;8.20;99.90
1405;DHT22;697;51.114;6.542;2024-03-23T07:11:18;8.30;99.90
1405;DHT22;697;51.114;6.542;2024-03-23T07:13:45;8.30;99.90
1405;DHT22;697;51.114;6.542;2024-03-23T07:16:15;8.40;99.90
1405;DHT22;697;51.114;6.542;2024-03-23T07:18:41;8.40;99.90
1405;DHT22;697;51.114;6.542;2024-03-23T07:21:08;8.60;99.90
1405;DHT22;697;51.114;6.542;2024-03-23T07:23:34;8.60;99.90
1405;DHT22;697;51.114;6.542;2024-03-23T07:26:02;8.70;99.90
1405;DHT22;697;51.114;6.542;2024-03-23T07:28:28;8.80;99.90
1405;DHT22;697;51.114;6.542;2024-03-23T07:31:05;8.80;99.90
1405;DHT22;697;51.114;6.542;2024-03-23T07:33:33;8.90;99.90
1405;DHT22;697;51.114;6.542;2024-03-23T07:36:00;9.00;99.90
1405;DHT22;697;51.114;6.542;2024-03-23T07:38:27;9.10;99.90
1405;DHT22;697;51.114;6.542;2024-03-23T07:41:03;9.00;99.90
1405;DHT22;697;51.114;6.542;2024-03-23T07:43:29;9.10;99.90
1405;DHT22;697;51.114;6.542;2024-03-23T07:45:55;9.10;99.90
1405;DHT22;697;51.114;6.542;2024-03-23T07:48:21;9.10;99.90
1405;DHT22;697;51.114;6.542;2024-03-23T07:50:58;9.10;99.90
1405;DHT22;697;51.114;6.542;2024-03-23T07:53:24;9.10;99.90
1405;DHT22;697;51.114;6.542;2024-03-23T07:55:57;9.20;99.90
1405;DHT22;697;51.114;6.542;2024-03-23T07:58:24;9.30;99.90
1405;DHT22;697;51.114;6.542;2024-03-23T08:00:52;9.30;99.90
1405;DHT22;697;51.114;6.542;2024-03-23T08:03:18;9.30;99.90
1405;DHT22;697;51.114;6.542;2024-03-23T08:05:45;9.40;99.90
1405;DHT22;697;51.114;6.542;2024-03-23T08:08:13;9.60;99.90
1405;DHT22;697;51.114;6.542;2024-03-23T08:10:48;9.60;99.90
1405;DHT22;697;51.114;6.542;2024-03-23T08:13:13;9.60;99.90
1405;DHT22;697;51.114;6.542;2024-03-23T08:15:40;9.50;99.90
1405;DHT22;697;51.114;6.542;2024-03-23T08:18:07;9.50;99.90
1405;DHT22;697;51.114;6.542;2024-03-23T08:20:33;9.60;99.90
1405;DHT22;697;51.114;6.542;2024-03-23T08:22:59;9.60;99.90
1405;DHT22;697;51.114;6.542;2024-03-23T08:25:31;9.50;99.90
1405;DHT22;697;51.114;6.542;2024-03-23T08:27:56;9.60;99.90
1405;DHT22;697;51.114;6.542;2024-03-23T08:30:23;9.70;99.90
1405;DHT22;697;51.114;6.542;2024-03-23T08:32:49;9.70;99.90
1405;DHT22;697;51.114;6.542;2024-03-23T08:35:16;9.80;99.90
1405;DHT22;697;51.114;6.542;2024-03-23T08:37:42;9.90;99.90
1405;DHT22;697;51.114;6.542;2024-03-23T08:40:09;10.00;99.70
1405;DHT22;697;51.114;6.542;2024-03-23T08:42:37;10.10;99.70
1405;DHT22;697;51.114;6.542;2024-03-23T08:45:04;10.10;99.60
1405;DHT22;697;51.114;6.542;2024-03-23T08:47:34;10.20;99.30
1405;DHT22;697;51.114;6.542;2024-03-23T08:50:01;10.20;99.70
1405;DHT22;697;51.114;6.542;2024-03-23T08:52:27;10.20;99.90
1405;DHT22;697;51.114;6.542;2024-03-23T08:54:55;10.20;99.90
1405;DHT22;697;51.114;6.542;2024-03-23T08:57:21;10.20;99.90
1405;DHT22;697;51.114;6.542;2024-03-23T08:59:50;10.20;99.70
1405;DHT22;697;51.114;6.542;2024-03-23T09:02:15;10.20;99.30
1405;DHT22;697;51.114;6.542;2024-03-23T09:04:43;10.10;98.80
1405;DHT22;697;51.114;6.542;2024-03-23T09:07:09;10.10;99.30
1405;DHT22;697;51.114;6.542;2024-03-23T09:09:38;10.20;99.90
1405;DHT22;697;51.114;6.542;2024-03-23T09:12:04;10.30;99.90
1405;DHT22;697;51.114;6.542;2024-03-23T09:14:31;10.30;99.30
1405;DHT22;697;51.114;6.542;2024-03-23T09:16:58;10.30;98.00
1405;DHT22;697;51.114;6.542;2024-03-23T09:19:27;10.30;97.80
1405;DHT22;697;51.114;6.542;2024-03-23T09:21:53;10.30;98.50
1405;DHT22;697;51.114;6.542;2024-03-23T09:24:20;10.30;98.10
1405;DHT22;697;51.114;6.542;2024-03-23T09:26:46;10.50;98.00
1405;DHT22;697;51.114;6.542;2024-03-23T09:29:13;10.70;97.40
1405;DHT22;697;51.114;6.542;2024-03-23T09:31:40;10.80;97.00
1405;DHT22;697;51.114;6.542;2024-03-23T09:34:08;10.90;97.40
1405;DHT22;697;51.114;6.542;2024-03-23T09:36:34;10.90;96.40
1405;DHT22;697;51.114;6.542;2024-03-23T09:39:01;10.90;95.70
1405;DHT22;697;51.114;6.542;2024-03-23T09:41:29;10.80;94.20
1405;DHT22;697;51.114;6.542;2024-03-23T09:43:56;10.80;94.70
1405;DHT22;697;51.114;6.542;2024-03-23T09:46:22;10.70;93.70
1405;DHT22;697;51.114;6.542;2024-03-23T09:48:49;10.60;92.40
1405;DHT22;697;51.114;6.542;2024-03-23T09:51:16;10.50;92.60
1405;DHT22;697;51.114;6.542;2024-03-23T09:53:43;10.50;92.80
1405;DHT22;697;51.114;6.542;2024-03-23T09:56:09;10.40;92.70
1405;DHT22;697;51.114;6.542;2024-03-23T09:58:35;10.30;93.20
1405;DHT22;697;51.114;6.542;2024-03-23T10:01:02;10.20;93.50
1405;DHT22;697;51.114;6.542;2024-03-23T10:03:29;10.50;95.50
1405;DHT22;697;51.114;6.542;2024-03-23T10:06:01;10.80;93.70
1405;DHT22;697;51.114;6.542;2024-03-23T10:08:30;10.90;94.10
1405;DHT22;697;51.114;6.542;2024-03-23T10:10:56;10.70;93.90
1405;DHT22;697;51.114;6.542;2024-03-23T10:13:24;10.60;94.10
1405;DHT22;697;51.114;6.542;2024-03-23T10:15:55;10.40;95.00
1405;DHT22;697;51.114;6.542;2024-03-23T10:18:23;10.50;95.40
1405;DHT22;697;51.114;6.542;2024-03-23T10:20:52;10.50;94.30
1405;DHT22;697;51.114;6.542;2024-03-23T10:23:19;10.50;92.30
1405;DHT22;697;51.114;6.542;2024-03-23T10:25:46;10.30;92.40
1405;DHT22;697;51.114;6.542;2024-03-23T10:28:13;10.30;93.40
1405;DHT22;697;51.114;6.542;2024-03-23T10:30:39;10.20;93.80
1405;DHT22;697;51.114;6.542;2024-03-23T10:33:09;10.10;94.30
1405;DHT22;697;51.114;6.542;2024-03-23T10:35:36;10.00;93.90
1405;DHT22;697;51.114;6.542;2024-03-23T10:38:05;10.30;94.70
1405;DHT22;697;51.114;6.542;2024-03-23T10:40:31;10.80;95.30
1405;DHT22;697;51.114;6.542;2024-03-23T10:43:03;11.50;94.20
1405;DHT22;697;51.114;6.542;2024-03-23T10:45:29;11.30;91.70
1405;DHT22;697;51.114;6.542;2024-03-23T10:47:56;10.70;91.80
1405;DHT22;697;51.114;6.542;2024-03-23T10:50:23;10.10;92.70
1405;DHT22;697;51.114;6.542;2024-03-23T10:52:53;9.60;95.00
1405;DHT22;697;51.114;6.542;2024-03-23T10:55:20;9.10;96.20
1405;DHT22;697;51.114;6.542;2024-03-23T10:57:50;8.80;96.80
1405;DHT22;697;51.114;6.542;2024-03-23T11:00:18;8.60;97.60
1405;DHT22;697;51.114;6.542;2024-03-23T11:02:47;8.40;98.60
1405;DHT22;697;51.114;6.542;2024-03-23T11:05:29;8.30;99.00
1405;DHT22;697;51.114;6.542;2024-03-23T11:07:57;8.30;99.30
1405;DHT22;697;51.114;6.542;2024-03-23T11:10:27;8.30;99.00
1405;DHT22;697;51.114;6.542;2024-03-23T11:12:54;8.40;99.30
1405;DHT22;697;51.114;6.542;2024-03-23T11:15:22;9.00;99.10
1405;DHT22;697;51.114;6.542;2024-03-23T11:18:06;10.20;97.00
1405;DHT22;697;51.114;6.542;2024-03-23T11:20:35;11.50;94.20
1405;DHT22;697;51.114;6.542;2024-03-23T11:23:02;12.50;91.40
1405;DHT22;697;51.114;6.542;2024-03-23T11:25:29;13.30;89.00
1405;DHT22;697;51.114;6.542;2024-03-23T11:27:56;14.00;84.20
1405;DHT22;697;51.114;6.542;2024-03-23T11:30:25;14.50;80.00
1405;DHT22;697;51.114;6.542;2024-03-23T11:32:54;15.40;78.60
1405;DHT22;697;51.114;6.542;2024-03-23T11:35:27;15.90;75.70
1405;DHT22;697;51.114;6.542;2024-03-23T11:38:07;16.70;74.40
1405;DHT22;697;51.114;6.542;2024-03-23T11:40:35;17.20;62.30
1405;DHT22;697;51.114;6.542;2024-03-23T11:43:02;17.00;61.30
1405;DHT22;697;51.114;6.542;2024-03-23T11:45:34;17.00;61.00
1405;DHT22;697;51.114;6.542;2024-03-23T11:48:08;16.30;63.40
1405;DHT22;697;51.114;6.542;2024-03-23T11:50:37;14.70;63.60
1405;DHT22;697;51.114;6.542;2024-03-23T11:53:21;13.10;70.10
1405;DHT22;697;51.114;6.542;2024-03-23T11:55:50;11.50;77.20
1405;DHT22;697;51.114;6.542;2024-03-23T11:58:17;10.40;85.50
1405;DHT22;697;51.114;6.542;2024-03-23T12:00:51;9.80;86.70
1405;DHT22;697;51.114;6.542;2024-03-23T12:03:17;9.40;91.50
1405;DHT22;697;51.114;6.542;2024-03-23T12:05:48;9.20;93.10
1405;DHT22;697;51.114;6.542;2024-03-23T12:08:19;9.10;94.60
1405;DHT22;697;51.114;6.542;2024-03-23T12:10:49;9.00;96.30
1405;DHT22;697;51.114;6.542;2024-03-23T12:13:16;8.80;97.00
1405;DHT22;697;51.114;6.542;2024-03-23T12:15:44;8.50;97.60
1405;DHT22;697;51.114;6.542;2024-03-23T12:18:12;8.40;98.10
1405;DHT22;697;51.114;6.542;2024-03-23T12:20:39;8.20;95.40
1405;DHT22;697;51.114;6.542;2024-03-23T12:23:07;8.10;95.80
1405;DHT22;697;51.114;6.542;2024-03-23T12:25:36;8.10;96.20
1405;DHT22;697;51.114;6.542;2024-03-23T12:28:02;8.10;96.50
1405;DHT22;697;51.114;6.542;2024-03-23T12:30:32;8.30;97.50
1405;DHT22;697;51.114;6.542;2024-03-23T12:32:57;8.50;97.30
1405;DHT22;697;51.114;6.542;2024-03-23T12:35:26;9.00;96.30
1405;DHT22;697;51.114;6.542;2024-03-23T12:37:52;9.60;95.30
1405;DHT22;697;51.114;6.542;2024-03-23T12:40:18;10.10;93.40
1405;DHT22;697;51.114;6.542;2024-03-23T12:42:44;10.70;92.20
1405;DHT22;697;51.114;6.542;2024-03-23T12:45:11;11.30;90.20
1405;DHT22;697;51.114;6.542;2024-03-23T12:47:37;11.90;87.50
1405;DHT22;697;51.114;6.542;2024-03-23T12:50:05;12.60;84.70
1405;DHT22;697;51.114;6.542;2024-03-23T12:52:32;13.50;83.00
1405;DHT22;697;51.114;6.542;2024-03-23T12:54:59;14.10;75.30
1405;DHT22;697;51.114;6.542;2024-03-23T12:57:25;14.50;72.50
1405;DHT22;697;51.114;6.542;2024-03-23T12:59:53;14.90;68.20
1405;DHT22;697;51.114;6.542;2024-03-23T13:02:19;15.50;67.40
1405;DHT22;697;51.114;6.542;2024-03-23T13:04:49;15.80;64.50
1405;DHT22;697;51.114;6.542;2024-03-23T13:07:15;16.10;60.70
1405;DHT22;697;51.114;6.542;2024-03-23T13:09:43;16.60;62.90
1405;DHT22;697;51.114;6.542;2024-03-23T13:12:09;17.60;61.00
1405;DHT22;697;51.114;6.542;2024-03-23T13:14:37;18.00;57.40
1405;DHT22;697;51.114;6.542;2024-03-23T13:17:04;18.00;55.40
1405;DHT22;697;51.114;6.542;2024-03-23T13:19:31;17.90;56.10
1405;DHT22;697;51.114;6.542;2024-03-23T13:21:57;17.20;57.00
1405;DHT22;697;51.114;6.542;2024-03-23T13:24:24;16.50;58.60
1405;DHT22;697;51.114;6.542;2024-03-23T13:26:55;15.90;59.50
1405;DHT22;697;51.114;6.542;2024-03-23T13:29:23;15.30;60.50
1405;DHT22;697;51.114;6.542;2024-03-23T13:31:50;14.50;62.70
1405;DHT22;697;51.114;6.542;2024-03-23T13:34:18;13.90;65.30
1405;DHT22;697;51.114;6.542;2024-03-23T13:36:44;13.30;68.90
1405;DHT22;697;51.114;6.542;2024-03-23T13:39:12;12.40;73.00
1405;DHT22;697;51.114;6.542;2024-03-23T13:41:38;12.10;74.10
1405;DHT22;697;51.114;6.542;2024-03-23T13:44:08;12.00;74.00
1405;DHT22;697;51.114;6.542;2024-03-23T13:46:36;11.80;75.40
1405;DHT22;697;51.114;6.542;2024-03-23T13:49:03;12.10;77.80
1405;DHT22;697;51.114;6.542;2024-03-23T13:51:29;13.20;76.70
1405;DHT22;697;51.114;6.542;2024-03-23T13:53:56;14.60;69.80
1405;DHT22;697;51.114;6.542;2024-03-23T13:56:22;15.70;62.20
1405;DHT22;697;51.114;6.542;2024-03-23T13:58:49;17.00;58.80
1405;DHT22;697;51.114;6.542;2024-03-23T14:01:17;18.10;53.40
1405;DHT22;697;51.114;6.542;2024-03-23T14:03:44;19.20;50.00
1405;DHT22;697;51.114;6.542;2024-03-23T14:06:10;19.90;47.30
1405;DHT22;697;51.114;6.542;2024-03-23T14:08:38;20.00;45.10
1405;DHT22;697;51.114;6.542;2024-03-23T14:11:05;19.10;43.20
1405;DHT22;697;51.114;6.542;2024-03-23T14:13:32;17.40;46.60
1405;DHT22;697;51.114;6.542;2024-03-23T14:15:58;15.50;52.40
1405;DHT22;697;51.114;6.542;2024-03-23T14:18:26;13.90;57.60
1405;DHT22;697;51.114;6.542;2024-03-23T14:20:57;12.40;63.90
1405;DHT22;697;51.114;6.542;2024-03-23T14:23:25;11.50;72.90
1405;DHT22;697;51.114;6.542;2024-03-23T14:25:53;11.20;79.10
1405;DHT22;697;51.114;6.542;2024-03-23T14:28:20;11.10;83.30
1405;DHT22;697;51.114;6.542;2024-03-23T14:30:45;11.00;86.10
1405;DHT22;697;51.114;6.542;2024-03-23T14:33:12;10.80;85.90
1405;DHT22;697;51.114;6.542;2024-03-23T14:35:40;10.70;87.80
1405;DHT22;697;51.114;6.542;2024-03-23T14:38:06;10.50;89.20
1405;DHT22;697;51.114;6.542;2024-03-23T14:40:33;10.30;90.00
1405;DHT22;697;51.114;6.542;2024-03-23T14:43:00;10.10;89.20
1405;DHT22;697;51.114;6.542;2024-03-23T14:45:26;10.00;89.80
1405;DHT22;697;51.114;6.542;2024-03-23T14:47:52;10.00;90.30
1405;DHT22;697;51.114;6.542;2024-03-23T14:50:18;10.50;92.00
1405;DHT22;697;51.114;6.542;2024-03-23T14:52:48;11.70;90.60
1405;DHT22;697;51.114;6.542;2024-03-23T14:55:14;12.70;79.80
1405;DHT22;697;51.114;6.542;2024-03-23T14:57:42;12.90;79.30
1405;DHT22;697;51.114;6.542;2024-03-23T15:00:09;12.90;78.00
1405;DHT22;697;51.114;6.542;2024-03-23T15:02:37;12.70;77.40
1405;DHT22;697;51.114;6.542;2024-03-23T15:05:04;12.40;78.20
1405;DHT22;697;51.114;6.542;2024-03-23T15:07:30;11.90;78.40
1405;DHT22;697;51.114;6.542;2024-03-23T15:09:58;11.70;81.50
1405;DHT22;697;51.114;6.542;2024-03-23T15:12:25;12.10;82.70
1405;DHT22;697;51.114;6.542;2024-03-23T15:14:51;12.90;79.50
1405;DHT22;697;51.114;6.542;2024-03-23T15:17:18;13.90;72.40
1405;DHT22;697;51.114;6.542;2024-03-23T15:19:44;14.90;65.10
1405;DHT22;697;51.114;6.542;2024-03-23T15:22:11;15.60;59.80
1405;DHT22;697;51.114;6.542;2024-03-23T15:24:36;16.50;59.10
1405;DHT22;697;51.114;6.542;2024-03-23T15:27:05;17.40;54.70
1405;DHT22;697;51.114;6.542;2024-03-23T15:29:33;18.20;50.40
1405;DHT22;697;51.114;6.542;2024-03-23T15:31:59;18.20;48.40
1405;DHT22;697;51.114;6.542;2024-03-23T15:34:25;17.30;49.40
1405;DHT22;697;51.114;6.542;2024-03-23T15:36:52;16.30;50.20
1405;DHT22;697;51.114;6.542;2024-03-23T15:39:18;15.10;53.90
1405;DHT22;697;51.114;6.542;2024-03-23T15:41:47;13.80;56.60
1405;DHT22;697;51.114;6.542;2024-03-23T15:44:14;12.80;61.20
1405;DHT22;697;51.114;6.542;2024-03-23T15:46:41;11.90;65.40
1405;DHT22;697;51.114;6.542;2024-03-23T15:49:07;11.30;69.00
1405;DHT22;697;51.114;6.542;2024-03-23T15:51:34;10.90;72.40
1405;DHT22;697;51.114;6.542;2024-03-23T15:54:02;10.60;76.00
1405;DHT22;697;51.114;6.542;2024-03-23T15:56:29;10.40;77.50
1405;DHT22;697;51.114;6.542;2024-03-23T15:58:55;10.30;80.10
1405;DHT22;697;51.114;6.542;2024-03-23T16:01:29;10.30;81.00
1405;DHT22;697;51.114;6.542;2024-03-23T16:03:55;10.50;80.00
1405;DHT22;697;51.114;6.542;2024-03-23T16:06:22;11.00;79.00
1405;DHT22;697;51.114;6.542;2024-03-23T16:08:47;11.90;79.00
1405;DHT22;697;51.114;6.542;2024-03-23T16:11:14;12.90;74.10
1405;DHT22;697;51.114;6.542;2024-03-23T16:13:40;14.00;70.10
1405;DHT22;697;51.114;6.542;2024-03-23T16:16:08;14.90;64.90
1405;DHT22;697;51.114;6.542;2024-03-23T16:18:37;15.30;60.00
1405;DHT22;697;51.114;6.542;2024-03-23T16:21:05;15.60;58.70
1405;DHT22;697;51.114;6.542;2024-03-23T16:23:33;15.60;57.40
1405;DHT22;697;51.114;6.542;2024-03-23T16:26:00;15.60;58.30
1405;DHT22;697;51.114;6.542;2024-03-23T16:28:28;15.60;57.90
1405;DHT22;697;51.114;6.542;2024-03-23T16:30:56;15.60;58.70
1405;DHT22;697;51.114;6.542;2024-03-23T16:33:22;15.60;58.30
1405;DHT22;697;51.114;6.542;2024-03-23T16:35:57;15.70;59.30
1405;DHT22;697;51.114;6.542;2024-03-23T16:38:24;15.60;57.20
1405;DHT22;697;51.114;6.542;2024-03-23T16:40:55;15.50;58.00
1405;DHT22;697;51.114;6.542;2024-03-23T16:43:21;15.50;58.70
1405;DHT22;697;51.114;6.542;2024-03-23T16:45:56;15.50;59.00
1405;DHT22;697;51.114;6.542;2024-03-23T16:48:22;15.40;58.60
1405;DHT22;697;51.114;6.542;2024-03-23T16:50:49;15.40;58.80
1405;DHT22;697;51.114;6.542;2024-03-23T16:53:17;15.30;58.50
1405;DHT22;697;51.114;6.542;2024-03-23T16:55:44;15.10;58.70
1405;DHT22;697;51.114;6.542;2024-03-23T16:58:10;14.80;59.00
1405;DHT22;697;51.114;6.542;2024-03-23T17:00:37;14.40;60.00
1405;DHT22;697;51.114;6.542;2024-03-23T17:03:04;13.90;60.90
1405;DHT22;697;51.114;6.542;2024-03-23T17:05:36;13.40;63.20
1405;DHT22;697;51.114;6.542;2024-03-23T17:08:03;13.00;65.50
1405;DHT22;697;51.114;6.542;2024-03-23T17:10:31;12.60;67.40
1405;DHT22;697;51.114;6.542;2024-03-23T17:12:58;12.30;69.10
1405;DHT22;697;51.114;6.542;2024-03-23T17:15:25;12.00;70.60
1405;DHT22;697;51.114;6.542;2024-03-23T17:17:51;11.80;72.40